sensor_id;sensor_type;location;lat;lon;timestamp;temperature;humidity
2212;DHT22;48849;48.758;9.158;2023-04-03T00:00:38;7.40;99.90
2212;DHT22;48849;48.758;9.158;2023-04-03T00:03:05;7.40;99.90
2212;DHT22;48849;48.758;9.158;2023-04-03T00:05:32;7.50;99.90
2212;DHT22;48849;48.758;9.158;2023-04-03T00:08:00;7.60;99.90
2212;DHT22;48849;48.758;9.158;2023-04-03T00:10:27;7.40;99.90
2212;DHT22;48849;48.758;9.158;2023-04-03T00:12:54;7.50;99.90
2212;DHT22;48849;48.758;9.158;2023-04-03T00:15:20;7.50;99.90
2212;DHT22;48849;48.758;9.158;2023-04-03T00:17:47;7.50;99.90
2212;DHT22;48849;48.758;9.158;2023-04-03T00:20:14;7.50;99.90
2212;DHT22;48849;48.758;9.158;2023-04-03T00:22:40;7.40;99.90
2212;DHT22;48849;48.758;9.158;2023-04-03T00:25:09;7.40;99.90
2212;DHT22;48849;48.758;9.158;2023-04-03T00:27:36;7.40;99.90
2212;DHT22;48849;48.758;9.158;2023-04-03T00:30:06;7.30;99.90
2212;DHT22;48849;48.758;9.158;2023-04-03T00:32:33;7.40;99.90
2212;DHT22;48849;48.758;9.158;2023-04-03T00:35:00;7.40;99.90
2212;DHT22;48849;48.758;9.158;2023-04-03T00:37:27;7.30;99.90
2212;DHT22;48849;48.758;9.158;2023-04-03T00:39:54;7.20;99.90
2212;DHT22;48849;48.758;9.158;2023-04-03T00:42:22;7.30;99.90
2212;DHT22;48849;48.758;9.158;2023-04-03T00:45:24;7.30;99.90
2212;DHT22;48849;48.758;9.158;2023-04-03T00:47:51;7.30;99.90
2212;DHT22;48849;48.758;9.158;2023-04-03T00:50:18;7.20;99.90
2212;DHT22;48849;48.758;9.158;2023-04-03T00:52:45;7.30;99.90
2212;DHT22;48849;48.758;9.158;2023-04-03T00:55:15;7.30;99.90
2212;DHT22;48849;48.758;9.158;2023-04-03T00:57:45;7.20;99.90
2212;DHT22;48849;48.758;9.158;2023-04-03T01:00:15;7.20;99.90
2212;DHT22;48849;48.758;9.158;2023-04-03T01:02:43;7.20;99.90
2212;DHT22;48849;48.758;9.158;2023-04-03T01:05:10;7.20;99.90
2212;DHT22;48849;48.758;9.158;2023-04-03T01:07:38;7.20;99.90
2212;DHT22;48849;48.758;9.158;2023-04-03T01:10:07;7.20;99.90
2212;DHT22;48849;48.758;9.158;2023-04-03T01:12:37;7.10;99.90
2212;DHT22;48849;48.758;9.158;2023-04-03T01:15:08;7.20;99.90
2212;DHT22;48849;48.758;9.158;2023-04-03T01:17:38;7.20;99.90
2212;DHT22;48849;48.758;9.158;2023-04-03T01:20:30;7.20;99.90
2212;DHT22;48849;48.758;9.158;2023-04-03T01:23:07;7.20;99.90
2212;DHT22;48849;48.758;9.158;2023-04-03T01:25:40;7.20;99.90
2212;DHT22;48849;48.758;9.158;2023-04-03T01:28:09;7.20;99.90
2212;DHT22;48849;48.758;9.158;2023-04-03T01:30:42;7.20;99.90
2212;DHT22;48849;48.758;9.158;2023-04-03T01:33:12;7.20;99.90
2212;DHT22;48849;48.758;9.158;2023-04-03T01:35:39;7.20;99.90
2212;DHT22;48849;48.758;9.158;2023-04-03T01:38:06;7.30;99.90
2212;DHT22;48849;48.758;9.158;2023-04-03T01:40:33;7.20;99.90
2212;DHT22;48849;48.758;9.158;2023-04-03T01:43:00;7.30;99.90
2212;DHT22;48849;48.758;9.158;2023-04-03T01:45:26;7.30;99.90
2212;DHT22;48849;48.758;9.158;2023-04-03T01:47:53;7.20;99.90
2212;DHT22;48849;48.758;9.158;2023-04-03T01:50:21;7.20;99.90
2212;DHT22;48849;48.758;9.158;2023-04-03T01:52:48;7.20;99.90
2212;DHT22;48849;48.758;9.158;2023-04-03T01:55:15;7.20;99.90
2212;DHT22;48849;48.758;9.158;2023-04-03T01:57:42;7.20;99.90
2212;DHT22;48849;48.758;9.158;2023-04-03T02:00:09;7.20;99.90
2212;DHT22;48849;48.758;9.158;2023-04-03T02:02:36;7.20;99.90
2212;DHT22;48849;48.758;9.158;2023-04-03T02:05:03;7.20;99.90
2212;DHT22;48849;48.758;9.158;2023-04-03T02:07:31;7.10;99.90
2212;DHT22;48849;48.758;9.158;2023-04-03T02:09:58;7.10;99.90
2212;DHT22;48849;48.758;9.158;2023-04-03T02:12:24;7.10;99.90
2212;DHT22;48849;48.758;9.158;2023-04-03T02:14:51;7.20;99.90
2212;DHT22;48849;48.758;9.158;2023-04-03T02:17:18;7.10;99.90
2212;DHT22;48849;48.758;9.158;2023-04-03T02:19:44;7.10;99.90
2212;DHT22;48849;48.758;9.158;2023-04-03T02:22:11;7.00;99.90
2212;DHT22;48849;48.758;9.158;2023-04-03T02:24:39;7.00;99.90
2212;DHT22;48849;48.758;9.158;2023-04-03T02:27:06;7.10;99.90
2212;DHT22;48849;48.758;9.158;2023-04-03T02:29:33;7.10;99.90
2212;DHT22;48849;48.758;9.158;2023-04-03T02:32:00;7.20;99.90
2212;DHT22;48849;48.758;9.158;2023-04-03T02:34:27;7.20;99.90
2212;DHT22;48849;48.758;9.158;2023-04-03T02:36:53;7.10;99.90
2212;DHT22;48849;48.758;9.158;2023-04-03T02:39:20;7.20;99.90
2212;DHT22;48849;48.758;9.158;2023-04-03T02:41:48;7.20;99.90
2212;DHT22;48849;48.758;9.158;2023-04-03T02:44:15;7.20;99.90
2212;DHT22;48849;48.758;9.158;2023-04-03T02:46:42;7.10;99.90
2212;DHT22;48849;48.758;9.158;2023-04-03T02:49:08;7.20;99.90
2212;DHT22;48849;48.758;9.158;2023-04-03T02:51:35;7.20;99.90
2212;DHT22;48849;48.758;9.158;2023-04-03T02:54:02;7.30;99.90
2212;DHT22;48849;48.758;9.158;2023-04-03T02:56:28;7.20;99.90
2212;DHT22;48849;48.758;9.158;2023-04-03T02:58:56;7.20;99.90
2212;DHT22;48849;48.758;9.158;2023-04-03T03:01:23;7.10;99.90
2212;DHT22;48849;48.758;9.158;2023-04-03T03:03:51;7.20;99.90
2212;DHT22;48849;48.758;9.158;2023-04-03T03:06:17;7.20;99.90
2212;DHT22;48849;48.758;9.158;2023-04-03T03:08:44;7.20;99.90
2212;DHT22;48849;48.758;9.158;2023-04-03T03:11:11;7.00;99.90
2212;DHT22;48849;48.758;9.158;2023-04-03T03:13:38;7.00;99.90
2212;DHT22;48849;48.758;9.158;2023-04-03T03:16:07;7.00;99.90
2212;DHT22;48849;48.758;9.158;2023-04-03T03:18:33;7.00;99.90
2212;DHT22;48849;48.758;9.158;2023-04-03T03:21:01;7.00;99.90
2212;DHT22;48849;48.758;9.158;2023-04-03T03:23:29;6.90;99.90
2212;DHT22;48849;48.758;9.158;2023-04-03T03:25:58;6.90;99.90
2212;DHT22;48849;48.758;9.158;2023-04-03T03:28:25;7.00;99.90
2212;DHT22;48849;48.758;9.158;2023-04-03T03:30:52;7.00;99.90
2212;DHT22;48849;48.758;9.158;2023-04-03T03:33:20;7.00;99.90
2212;DHT22;48849;48.758;9.158;2023-04-03T03:35:47;7.10;99.90
2212;DHT22;48849;48.758;9.158;2023-04-03T03:38:14;7.20;99.90
2212;DHT22;48849;48.758;9.158;2023-04-03T03:40:40;7.10;99.90
2212;DHT22;48849;48.758;9.158;2023-04-03T03:43:07;7.10;99.90
2212;DHT22;48849;48.758;9.158;2023-04-03T03:45:34;7.00;99.90
2212;DHT22;48849;48.758;9.158;2023-04-03T03:48:01;7.20;99.90
2212;DHT22;48849;48.758;9.158;2023-04-03T03:50:29;7.20;99.90
2212;DHT22;48849;48.758;9.158;2023-04-03T03:52:55;7.20;99.90
2212;DHT22;48849;48.758;9.158;2023-04-03T03:55:22;7.10;99.90
2212;DHT22;48849;48.758;9.158;2023-04-03T03:57:49;7.00;99.90
2212;DHT22;48849;48.758;9.158;2023-04-03T04:00:16;7.00;99.90
2212;DHT22;48849;48.758;9.158;2023-04-03T04:02:42;7.10;99.90
2212;DHT22;48849;48.758;9.158;2023-04-03T04:05:10;7.10;99.90
2212;DHT22;48849;48.758;9.158;2023-04-03T04:07:38;7.00;99.90
2212;DHT22;48849;48.758;9.158;2023-04-03T04:10:05;7.10;99.90
2212;DHT22;48849;48.758;9.158;2023-04-03T04:12:32;7.20;99.90
2212;DHT22;48849;48.758;9.158;2023-04-03T04:15:00;7.20;99.90
2212;DHT22;48849;48.758;9.158;2023-04-03T04:17:27;7.30;99.90
2212;DHT22;48849;48.758;9.158;2023-04-03T04:19:54;7.40;99.90
2212;DHT22;48849;48.758;9.158;2023-04-03T04:22:21;7.50;99.90
2212;DHT22;48849;48.758;9.158;2023-04-03T04:24:49;7.50;99.90
2212;DHT22;48849;48.758;9.158;2023-04-03T04:27:16;7.40;99.90
2212;DHT22;48849;48.758;9.158;2023-04-03T04:29:43;7.50;99.90
2212;DHT22;48849;48.758;9.158;2023-04-03T04:32:09;7.60;99.90
2212;DHT22;48849;48.758;9.158;2023-04-03T04:34:36;7.60;99.90
2212;DHT22;48849;48.758;9.158;2023-04-03T04:37:03;7.60;99.90
2212;DHT22;48849;48.758;9.158;2023-04-03T04:39:30;7.60;99.90
2212;DHT22;48849;48.758;9.158;2023-04-03T04:41:58;7.70;99.90
2212;DHT22;48849;48.758;9.158;2023-04-03T04:44:24;7.70;99.90
2212;DHT22;48849;48.758;9.158;2023-04-03T04:46:51;7.80;99.90
2212;DHT22;48849;48.758;9.158;2023-04-03T04:49:18;7.70;99.90
2212;DHT22;48849;48.758;9.158;2023-04-03T04:51:45;7.60;99.90
2212;DHT22;48849;48.758;9.158;2023-04-03T04:54:12;7.60;99.90
2212;DHT22;48849;48.758;9.158;2023-04-03T04:56:39;7.60;99.90
2212;DHT22;48849;48.758;9.158;2023-04-03T04:59:07;7.50;99.90
2212;DHT22;48849;48.758;9.158;2023-04-03T05:01:33;7.50;99.90
2212;DHT22;48849;48.758;9.158;2023-04-03T05:04:01;7.30;99.90
2212;DHT22;48849;48.758;9.158;2023-04-03T05:06:27;7.20;99.90
2212;DHT22;48849;48.758;9.158;2023-04-03T05:08:55;7.20;99.90
2212;DHT22;48849;48.758;9.158;2023-04-03T05:11:22;7.30;99.90
2212;DHT22;48849;48.758;9.158;2023-04-03T05:13:49;7.30;99.90
2212;DHT22;48849;48.758;9.158;2023-04-03T05:16:17;7.30;99.90
2212;DHT22;48849;48.758;9.158;2023-04-03T05:18:43;7.50;99.90
2212;DHT22;48849;48.758;9.158;2023-04-03T05:21:10;7.60;99.90
2212;DHT22;48849;48.758;9.158;2023-04-03T05:23:37;7.60;99.90
2212;DHT22;48849;48.758;9.158;2023-04-03T05:26:04;7.60;99.90
2212;DHT22;48849;48.758;9.158;2023-04-03T05:28:31;7.60;99.90
2212;DHT22;48849;48.758;9.158;2023-04-03T05:30:58;7.70;99.90
2212;DHT22;48849;48.758;9.158;2023-04-03T05:33:27;7.50;99.90
2212;DHT22;48849;48.758;9.158;2023-04-03T05:35:54;7.40;99.90
2212;DHT22;48849;48.758;9.158;2023-04-03T05:38:20;7.40;99.90
2212;DHT22;48849;48.758;9.158;2023-04-03T05:40:47;7.40;99.90
2212;DHT22;48849;48.758;9.158;2023-04-03T05:43:14;7.30;99.90
2212;DHT22;48849;48.758;9.158;2023-04-03T05:45:41;7.30;99.90
2212;DHT22;48849;48.758;9.158;2023-04-03T05:48:07;7.40;99.90
2212;DHT22;48849;48.758;9.158;2023-04-03T05:50:35;7.30;99.90
2212;DHT22;48849;48.758;9.158;2023-04-03T05:53:07;7.20;99.90
2212;DHT22;48849;48.758;9.158;2023-04-03T05:55:38;7.20;99.90
2212;DHT22;48849;48.758;9.158;2023-04-03T05:58:05;7.20;99.90
2212;DHT22;48849;48.758;9.158;2023-04-03T06:00:32;7.20;99.90
2212;DHT22;48849;48.758;9.158;2023-04-03T06:02:58;7.20;99.90
2212;DHT22;48849;48.758;9.158;2023-04-03T06:05:25;7.20;99.90
2212;DHT22;48849;48.758;9.158;2023-04-03T06:07:53;7.10;99.90
2212;DHT22;48849;48.758;9.158;2023-04-03T06:10:21;7.10;99.90
2212;DHT22;48849;48.758;9.158;2023-04-03T06:12:48;7.10;99.90
2212;DHT22;48849;48.758;9.158;2023-04-03T06:15:15;7.20;99.90
2212;DHT22;48849;48.758;9.158;2023-04-03T06:17:42;7.20;99.90
2212;DHT22;48849;48.758;9.158;2023-04-03T06:20:10;7.30;99.90
2212;DHT22;48849;48.758;9.158;2023-04-03T06:22:37;7.50;99.90
2212;DHT22;48849;48.758;9.158;2023-04-03T06:25:06;7.60;99.90
2212;DHT22;48849;48.758;9.158;2023-04-03T06:27:33;7.60;99.90
2212;DHT22;48849;48.758;9.158;2023-04-03T06:30:00;7.70;99.90
2212;DHT22;48849;48.758;9.158;2023-04-03T06:32:27;7.70;99.90
2212;DHT22;48849;48.758;9.158;2023-04-03T06:34:53;7.80;99.90
2212;DHT22;48849;48.758;9.158;2023-04-03T06:37:22;7.80;99.90
2212;DHT22;48849;48.758;9.158;2023-04-03T06:39:51;7.90;99.90
2212;DHT22;48849;48.758;9.158;2023-04-03T06:42:19;7.90;99.90
2212;DHT22;48849;48.758;9.158;2023-04-03T06:44:46;7.90;99.90
2212;DHT22;48849;48.758;9.158;2023-04-03T06:47:14;7.70;99.90
2212;DHT22;48849;48.758;9.158;2023-04-03T06:49:41;7.70;99.90
2212;DHT22;48849;48.758;9.158;2023-04-03T06:52:08;7.60;99.90
2212;DHT22;48849;48.758;9.158;2023-04-03T06:54:37;7.70;99.90
2212;DHT22;48849;48.758;9.158;2023-04-03T06:57:04;7.80;99.90
2212;DHT22;48849;48.758;9.158;2023-04-03T06:59:32;7.90;99.90
2212;DHT22;48849;48.758;9.158;2023-04-03T07:01:59;7.90;99.90
2212;DHT22;48849;48.758;9.158;2023-04-03T07:04:26;7.80;99.90
2212;DHT22;48849;48.758;9.158;2023-04-03T07:06:52;7.80;99.90
2212;DHT22;48849;48.758;9.158;2023-04-03T07:09:19;7.80;99.90
2212;DHT22;48849;48.758;9.158;2023-04-03T07:11:46;7.70;99.90
2212;DHT22;48849;48.758;9.158;2023-04-03T07:14:13;7.70;99.90
2212;DHT22;48849;48.758;9.158;2023-04-03T07:16:41;7.80;99.90
2212;DHT22;48849;48.758;9.158;2023-04-03T07:19:08;7.80;99.90
2212;DHT22;48849;48.758;9.158;2023-04-03T07:21:35;7.70;99.90
2212;DHT22;48849;48.758;9.158;2023-04-03T07:24:02;7.80;99.90
2212;DHT22;48849;48.758;9.158;2023-04-03T07:26:28;7.80;99.90
2212;DHT22;48849;48.758;9.158;2023-04-03T07:28:55;7.90;99.90
2212;DHT22;48849;48.758;9.158;2023-04-03T07:31:22;7.90;99.90
2212;DHT22;48849;48.758;9.158;2023-04-03T07:33:52;8.00;99.90
2212;DHT22;48849;48.758;9.158;2023-04-03T07:36:20;8.00;99.90
2212;DHT22;48849;48.758;9.158;2023-04-03T07:38:47;7.90;99.90
2212;DHT22;48849;48.758;9.158;2023-04-03T07:41:15;7.80;99.90
2212;DHT22;48849;48.758;9.158;2023-04-03T07:43:43;7.80;99.90
2212;DHT22;48849;48.758;9.158;2023-04-03T07:46:09;7.90;99.90
2212;DHT22;48849;48.758;9.158;2023-04-03T07:48:36;7.90;99.90
2212;DHT22;48849;48.758;9.158;2023-04-03T07:51:04;7.90;99.90
2212;DHT22;48849;48.758;9.158;2023-04-03T07:53:32;8.10;99.90
2212;DHT22;48849;48.758;9.158;2023-04-03T07:55:59;8.00;99.90
2212;DHT22;48849;48.758;9.158;2023-04-03T07:58:28;8.00;99.90
2212;DHT22;48849;48.758;9.158;2023-04-03T08:00:55;8.10;99.90
2212;DHT22;48849;48.758;9.158;2023-04-03T08:03:22;8.20;99.90
2212;DHT22;48849;48.758;9.158;2023-04-03T08:05:49;8.30;99.90
2212;DHT22;48849;48.758;9.158;2023-04-03T08:08:19;8.40;99.90
2212;DHT22;48849;48.758;9.158;2023-04-03T08:10:48;8.40;99.90
2212;DHT22;48849;48.758;9.158;2023-04-03T08:13:16;8.40;99.90
2212;DHT22;48849;48.758;9.158;2023-04-03T08:15:42;8.40;99.90
2212;DHT22;48849;48.758;9.158;2023-04-03T08:18:10;8.40;99.90
2212;DHT22;48849;48.758;9.158;2023-04-03T08:20:38;8.40;99.90
2212;DHT22;48849;48.758;9.158;2023-04-03T08:23:05;8.40;99.90
2212;DHT22;48849;48.758;9.158;2023-04-03T08:25:33;8.40;99.90
2212;DHT22;48849;48.758;9.158;2023-04-03T08:28:00;8.40;99.90
2212;DHT22;48849;48.758;9.158;2023-04-03T08:30:27;8.40;99.90
2212;DHT22;48849;48.758;9.158;2023-04-03T08:32:54;8.50;99.90
2212;DHT22;48849;48.758;9.158;2023-04-03T08:35:21;8.50;99.90
2212;DHT22;48849;48.758;9.158;2023-04-03T08:37:48;8.40;99.90
2212;DHT22;48849;48.758;9.158;2023-04-03T08:40:16;8.40;99.90
2212;DHT22;48849;48.758;9.158;2023-04-03T08:42:52;8.40;99.90
2212;DHT22;48849;48.758;9.158;2023-04-03T08:45:26;8.30;99.90
2212;DHT22;48849;48.758;9.158;2023-04-03T08:47:59;8.40;99.90
2212;DHT22;48849;48.758;9.158;2023-04-03T08:50:30;8.40;99.90
2212;DHT22;48849;48.758;9.158;2023-04-03T08:53:01;8.30;99.90
2212;DHT22;48849;48.758;9.158;2023-04-03T08:55:34;8.30;99.90
2212;DHT22;48849;48.758;9.158;2023-04-03T08:58:04;8.30;99.90
2212;DHT22;48849;48.758;9.158;2023-04-03T09:00:40;8.20;99.90
2212;DHT22;48849;48.758;9.158;2023-04-03T09:03:12;8.20;99.90
2212;DHT22;48849;48.758;9.158;2023-04-03T09:05:42;8.30;99.90
2212;DHT22;48849;48.758;9.158;2023-04-03T09:08:18;8.30;99.90
2212;DHT22;48849;48.758;9.158;2023-04-03T09:10:49;8.40;99.90
2212;DHT22;48849;48.758;9.158;2023-04-03T09:13:25;8.30;99.90
2212;DHT22;48849;48.758;9.158;2023-04-03T09:15:53;8.40;99.90
2212;DHT22;48849;48.758;9.158;2023-04-03T09:18:24;8.50;99.90
2212;DHT22;48849;48.758;9.158;2023-04-03T09:20:57;8.50;99.90
2212;DHT22;48849;48.758;9.158;2023-04-03T09:23:29;8.60;99.90
2212;DHT22;48849;48.758;9.158;2023-04-03T09:26:01;8.80;99.90
2212;DHT22;48849;48.758;9.158;2023-04-03T09:28:31;8.90;99.90
2212;DHT22;48849;48.758;9.158;2023-04-03T09:30:59;8.90;99.90
2212;DHT22;48849;48.758;9.158;2023-04-03T09:33:27;8.80;99.90
2212;DHT22;48849;48.758;9.158;2023-04-03T09:35:56;8.80;99.90
2212;DHT22;48849;48.758;9.158;2023-04-03T09:38:23;8.70;99.90
2212;DHT22;48849;48.758;9.158;2023-04-03T09:41:04;8.70;99.90
2212;DHT22;48849;48.758;9.158;2023-04-03T09:43:33;8.80;99.90
2212;DHT22;48849;48.758;9.158;2023-04-03T09:46:23;8.70;99.90
2212;DHT22;48849;48.758;9.158;2023-04-03T09:48:55;8.80;99.90
2212;DHT22;48849;48.758;9.158;2023-04-03T09:51:25;8.90;99.90
2212;DHT22;48849;48.758;9.158;2023-04-03T09:53:54;8.90;99.90
2212;DHT22;48849;48.758;9.158;2023-04-03T09:56:24;8.90;99.90
2212;DHT22;48849;48.758;9.158;2023-04-03T09:59:07;9.00;99.90
2212;DHT22;48849;48.758;9.158;2023-04-03T10:01:35;9.00;99.90
2212;DHT22;48849;48.758;9.158;2023-04-03T10:04:06;9.10;99.90
2212;DHT22;48849;48.758;9.158;2023-04-03T10:06:34;9.00;99.90
2212;DHT22;48849;48.758;9.158;2023-04-03T10:09:03;9.10;99.90
2212;DHT22;48849;48.758;9.158;2023-04-03T10:11:31;9.10;99.90
2212;DHT22;48849;48.758;9.158;2023-04-03T10:14:00;9.20;99.90
2212;DHT22;48849;48.758;9.158;2023-04-03T10:16:35;9.20;99.90
2212;DHT22;48849;48.758;9.158;2023-04-03T10:19:29;9.10;99.90
2212;DHT22;48849;48.758;9.158;2023-04-03T10:21:59;9.00;99.90
2212;DHT22;48849;48.758;9.158;2023-04-03T10:24:35;8.90;99.90
2212;DHT22;48849;48.758;9.158;2023-04-03T10:27:07;8.90;99.90
2212;DHT22;48849;48.758;9.158;2023-04-03T10:29:45;8.80;99.90
2212;DHT22;48849;48.758;9.158;2023-04-03T10:32:26;8.80;99.90
2212;DHT22;48849;48.758;9.158;2023-04-03T10:35:02;8.80;99.90
2212;DHT22;48849;48.758;9.158;2023-04-03T10:37:41;9.00;99.90
2212;DHT22;48849;48.758;9.158;2023-04-03T10:40:24;9.00;99.90
2212;DHT22;48849;48.758;9.158;2023-04-03T10:43:04;9.00;99.90
2212;DHT22;48849;48.758;9.158;2023-04-03T10:45:54;9.00;99.90
2212;DHT22;48849;48.758;9.158;2023-04-03T10:48:33;8.90;99.90
2212;DHT22;48849;48.758;9.158;2023-04-03T10:51:13;9.00;99.90
2212;DHT22;48849;48.758;9.158;2023-04-03T10:53:46;9.00;99.90
2212;DHT22;48849;48.758;9.158;2023-04-03T10:56:21;8.80;99.90
2212;DHT22;48849;48.758;9.158;2023-04-03T10:58:57;8.90;99.90
2212;DHT22;48849;48.758;9.158;2023-04-03T11:01:30;8.90;99.90
2212;DHT22;48849;48.758;9.158;2023-04-03T11:03:59;8.80;99.90
2212;DHT22;48849;48.758;9.158;2023-04-03T11:06:33;8.80;99.90
2212;DHT22;48849;48.758;9.158;2023-04-03T11:09:05;8.80;99.90
2212;DHT22;48849;48.758;9.158;2023-04-03T11:11:36;8.80;99.90
2212;DHT22;48849;48.758;9.158;2023-04-03T11:14:09;8.90;99.90
2212;DHT22;48849;48.758;9.158;2023-04-03T11:16:45;9.00;99.90
2212;DHT22;48849;48.758;9.158;2023-04-03T11:19:18;9.10;99.90
2212;DHT22;48849;48.758;9.158;2023-04-03T11:21:52;9.10;99.90
2212;DHT22;48849;48.758;9.158;2023-04-03T11:24:24;9.10;99.90
2212;DHT22;48849;48.758;9.158;2023-04-03T11:26:53;9.20;99.90
2212;DHT22;48849;48.758;9.158;2023-04-03T11:29:22;9.20;99.90
2212;DHT22;48849;48.758;9.158;2023-04-03T11:32:06;9.30;99.90
2212;DHT22;48849;48.758;9.158;2023-04-03T11:34:35;9.30;99.90
2212;DHT22;48849;48.758;9.158;2023-04-03T11:37:12;9.40;99.90
2212;DHT22;48849;48.758;9.158;2023-04-03T11:39:40;9.30;99.90
2212;DHT22;48849;48.758;9.158;2023-04-03T11:42:15;9.30;99.90
2212;DHT22;48849;48.758;9.158;2023-04-03T11:44:42;9.30;99.90
2212;DHT22;48849;48.758;9.158;2023-04-03T11:47:12;9.30;99.90
2212;DHT22;48849;48.758;9.158;2023-04-03T11:50:03;9.30;99.90
2212;DHT22;48849;48.758;9.158;2023-04-03T11:52:59;9.20;99.90
2212;DHT22;48849;48.758;9.158;2023-04-03T11:55:53;9.10;99.90
2212;DHT22;48849;48.758;9.158;2023-04-03T11:58:21;9.10;99.90
2212;DHT22;48849;48.758;9.158;2023-04-03T12:01:07;9.10;99.90
2212;DHT22;48849;48.758;9.158;2023-04-03T12:03:56;9.20;99.90
2212;DHT22;48849;48.758;9.158;2023-04-03T12:07:02;9.20;99.90
2212;DHT22;48849;48.758;9.158;2023-04-03T12:10:18;9.20;99.90
2212;DHT22;48849;48.758;9.158;2023-04-03T12:12:58;9.10;99.90
2212;DHT22;48849;48.758;9.158;2023-04-03T12:15:52;9.20;99.90
2212;DHT22;48849;48.758;9.158;2023-04-03T12:18:59;9.20;99.90
2212;DHT22;48849;48.758;9.158;2023-04-03T12:22:12;9.20;99.90
2212;DHT22;48849;48.758;9.158;2023-04-03T12:24:41;9.00;99.90
2212;DHT22;48849;48.758;9.158;2023-04-03T12:30:17;9.10;99.90
2212;DHT22;48849;48.758;9.158;2023-04-03T12:33:09;9.10;99.90
2212;DHT22;48849;48.758;9.158;2023-04-03T12:35:44;9.10;99.90
2212;DHT22;48849;48.758;9.158;2023-04-03T12:38:39;9.20;99.90
2212;DHT22;48849;48.758;9.158;2023-04-03T12:41:19;9.20;99.90
2212;DHT22;48849;48.758;9.158;2023-04-03T12:43:58;9.10;99.90
2212;DHT22;48849;48.758;9.158;2023-04-03T12:46:33;9.20;99.90
2212;DHT22;48849;48.758;9.158;2023-04-03T12:49:14;9.30;99.90
2212;DHT22;48849;48.758;9.158;2023-04-03T12:51:45;9.30;99.90
2212;DHT22;48849;48.758;9.158;2023-04-03T12:54:16;9.30;99.90
2212;DHT22;48849;48.758;9.158;2023-04-03T12:56:46;9.20;99.90
2212;DHT22;48849;48.758;9.158;2023-04-03T12:59:15;9.30;99.90
2212;DHT22;48849;48.758;9.158;2023-04-03T13:01:42;9.40;99.90
2212;DHT22;48849;48.758;9.158;2023-04-03T13:04:10;9.30;99.90
2212;DHT22;48849;48.758;9.158;2023-04-03T13:06:39;9.30;99.90
2212;DHT22;48849;48.758;9.158;2023-04-03T13:09:19;9.20;99.90
2212;DHT22;48849;48.758;9.158;2023-04-03T13:11:49;9.20;99.90
2212;DHT22;48849;48.758;9.158;2023-04-03T13:14:18;9.30;99.90
2212;DHT22;48849;48.758;9.158;2023-04-03T13:16:53;9.40;99.90
2212;DHT22;48849;48.758;9.158;2023-04-03T13:19:20;9.40;99.90
2212;DHT22;48849;48.758;9.158;2023-04-03T13:21:49;9.60;99.90
2212;DHT22;48849;48.758;9.158;2023-04-03T13:24:19;9.70;99.90
2212;DHT22;48849;48.758;9.158;2023-04-03T13:26:46;9.80;99.90
2212;DHT22;48849;48.758;9.158;2023-04-03T13:29:22;9.90;99.90
2212;DHT22;48849;48.758;9.158;2023-04-03T13:31:52;10.10;99.90
2212;DHT22;48849;48.758;9.158;2023-04-03T13:34:20;10.20;99.90
2212;DHT22;48849;48.758;9.158;2023-04-03T13:36:56;10.30;99.90
2212;DHT22;48849;48.758;9.158;2023-04-03T13:39:26;10.40;99.90
2212;DHT22;48849;48.758;9.158;2023-04-03T13:41:55;10.40;99.90
2212;DHT22;48849;48.758;9.158;2023-04-03T13:44:33;10.50;99.90
2212;DHT22;48849;48.758;9.158;2023-04-03T13:47:16;10.30;99.90
2212;DHT22;48849;48.758;9.158;2023-04-03T13:49:45;10.30;99.90
2212;DHT22;48849;48.758;9.158;2023-04-03T13:52:23;10.30;99.90
2212;DHT22;48849;48.758;9.158;2023-04-03T13:54:55;10.20;99.90
2212;DHT22;48849;48.758;9.158;2023-04-03T13:57:22;10.30;99.90
2212;DHT22;48849;48.758;9.158;2023-04-03T13:59:49;10.20;99.90
2212;DHT22;48849;48.758;9.158;2023-04-03T14:02:20;10.30;99.90
2212;DHT22;48849;48.758;9.158;2023-04-03T14:04:52;10.20;99.90
2212;DHT22;48849;48.758;9.158;2023-04-03T14:07:22;10.20;99.90
2212;DHT22;48849;48.758;9.158;2023-04-03T14:09:49;10.20;99.90
2212;DHT22;48849;48.758;9.158;2023-04-03T14:12:20;10.20;99.90
2212;DHT22;48849;48.758;9.158;2023-04-03T14:14:47;10.20;99.90
2212;DHT22;48849;48.758;9.158;2023-04-03T14:17:16;10.10;99.90
2212;DHT22;48849;48.758;9.158;2023-04-03T14:19:44;10.10;99.90
2212;DHT22;48849;48.758;9.158;2023-04-03T14:22:16;10.10;99.90
2212;DHT22;48849;48.758;9.158;2023-04-03T14:24:44;10.00;99.90
2212;DHT22;48849;48.758;9.158;2023-04-03T14:27:18;10.00;99.90
2212;DHT22;48849;48.758;9.158;2023-04-03T14:29:45;9.90;99.90
2212;DHT22;48849;48.758;9.158;2023-04-03T14:32:13;10.00;99.90
2212;DHT22;48849;48.758;9.158;2023-04-03T14:34:41;10.00;99.90
2212;DHT22;48849;48.758;9.158;2023-04-03T14:37:11;10.10;99.90
2212;DHT22;48849;48.758;9.158;2023-04-03T14:39:38;10.10;99.90
2212;DHT22;48849;48.758;9.158;2023-04-03T14:42:05;10.10;99.90
2212;DHT22;48849;48.758;9.158;2023-04-03T14:44:33;10.00;99.90
2212;DHT22;48849;48.758;9.158;2023-04-03T14:47:00;9.90;99.90
2212;DHT22;48849;48.758;9.158;2023-04-03T14:49:28;9.90;99.90
2212;DHT22;48849;48.758;9.158;2023-04-03T14:51:55;9.90;99.90
2212;DHT22;48849;48.758;9.158;2023-04-03T14:54:22;9.80;99.90
2212;DHT22;48849;48.758;9.158;2023-04-03T14:56:51;9.70;99.90
2212;DHT22;48849;48.758;9.158;2023-04-03T14:59:18;9.70;99.90
2212;DHT22;48849;48.758;9.158;2023-04-03T15:01:46;9.80;99.90
2212;DHT22;48849;48.758;9.158;2023-04-03T15:04:14;9.70;99.90
2212;DHT22;48849;48.758;9.158;2023-04-03T15:06:41;9.70;99.90
2212;DHT22;48849;48.758;9.158;2023-04-03T15:09:18;9.70;99.90
2212;DHT22;48849;48.758;9.158;2023-04-03T15:11:46;9.70;99.90
2212;DHT22;48849;48.758;9.158;2023-04-03T15:14:12;9.80;99.90
2212;DHT22;48849;48.758;9.158;2023-04-03T15:16:39;9.70;99.90
2212;DHT22;48849;48.758;9.158;2023-04-03T15:19:07;9.70;99.90
2212;DHT22;48849;48.758;9.158;2023-04-03T15:21:34;9.60;99.90
2212;DHT22;48849;48.758;9.158;2023-04-03T15:24:01;9.70;99.90
2212;DHT22;48849;48.758;9.158;2023-04-03T15:26:28;9.80;99.90
2212;DHT22;48849;48.758;9.158;2023-04-03T15:28:55;9.70;99.90
2212;DHT22;48849;48.758;9.158;2023-04-03T15:31:22;9.80;99.90
2212;DHT22;48849;48.758;9.158;2023-04-03T15:33:48;9.80;99.90
2212;DHT22;48849;48.758;9.158;2023-04-03T15:36:16;9.80;99.90
2212;DHT22;48849;48.758;9.158;2023-04-03T15:38:43;9.90;99.90
2212;DHT22;48849;48.758;9.158;2023-04-03T15:41:10;9.90;99.90
2212;DHT22;48849;48.758;9.158;2023-04-03T15:43:37;9.90;99.90
2212;DHT22;48849;48.758;9.158;2023-04-03T15:46:03;10.10;99.90
2212;DHT22;48849;48.758;9.158;2023-04-03T15:48:30;10.00;99.90
2212;DHT22;48849;48.758;9.158;2023-04-03T15:50:57;9.90;99.90
2212;DHT22;48849;48.758;9.158;2023-04-03T15:53:25;9.80;99.90
2212;DHT22;48849;48.758;9.158;2023-04-03T15:55:52;9.80;99.90
2212;DHT22;48849;48.758;9.158;2023-04-03T15:58:19;9.70;99.90
2212;DHT22;48849;48.758;9.158;2023-04-03T16:00:45;9.70;99.90
2212;DHT22;48849;48.758;9.158;2023-04-03T16:03:16;9.70;99.90
2212;DHT22;48849;48.758;9.158;2023-04-03T16:05:43;9.50;99.90
2212;DHT22;48849;48.758;9.158;2023-04-03T16:08:11;9.60;99.90
2212;DHT22;48849;48.758;9.158;2023-04-03T16:10:39;9.40;99.90
2212;DHT22;48849;48.758;9.158;2023-04-03T16:13:06;9.40;99.90
2212;DHT22;48849;48.758;9.158;2023-04-03T16:15:33;9.50;99.90
2212;DHT22;48849;48.758;9.158;2023-04-03T16:18:01;9.50;99.90
2212;DHT22;48849;48.758;9.158;2023-04-03T16:20:28;9.60;99.90